Oslo, MN

04:07 PM CDT on Julie 27, 2016 (GMT -0500)
Grafton Municipal | | Change Station

Elev 823 ft 48.40 °N, 97.37 °W | Updated 12 minutes ago

Clear
Oop
75 °F
Feels Like 75 °F
N
16
Wind Veranderlik Wind from Noord

Vandag
High -- | Low -- °F
--% Chance of Precip.
Yesterday
High -- | Low -- °F
Precip. -- in
Druk 30.10 in
Sigbaarheid 10.0 myle
Wolke Oop
Dou-punt 59 °F
Humiditeit 57%
Rainfall 0.00 in
Snow Depth Not available.
5:58 AM 9:10 PM
Laaste kwarter, 39% visible
METAR KGAF 272055Z AUTO 35014KT 10SM CLR 24/15 A3010 RMK AO2
Druk 30.10 in
Sigbaarheid 10.0 myle
Wolke Oop
Dou-punt 59 °F
Humiditeit 57%
Rainfall 0.00 in
Snow Depth Not available.
5:58 AM 9:10 PM
Laaste kwarter, 39% visible
METAR KGAF 272055Z AUTO 35014KT 10SM CLR 24/15 A3010 RMK AO2

10-Day Weather Forecast

Almanac

Astronomy

Jul. 27, 2016 Rise Set
Ware Tyd
Civil Twilight
Nautical Twilight
Astronomical Twilight
Maan
Length Of Visible Light
Length of Day
Tomorrow will be .
, % of the Moon is Illuminated

Today's Extremes

State Highs State Lows

Community

WunderPhotos

Upload Photos

1,927,936 photos uploaded!

WunderBlog® & News

Nearby

Air Quality

  Air Quality AQ Index Pollutant
Not available.

Snow Depth

Station Depth Elevation

Earthquake Activity

Stad Distance Mag. Time & Date
Minimum magnitude displayed is 2.5.

Coastal Water Temperatures

Plek Temperatuur

Stations

Nearby Weather Stations

Station Location Temp Wind afkoel Dou-punt Humiditeit Wind Precip. Elev Opdateer Type
                   

Watches & Warnings

There are currently no watches in effect.